createdAt,value
2018-09-06T00:00:07.056Z,7.97
2018-09-06T00:02:35.831Z,7.33
2018-09-06T00:05:04.625Z,8.37
2018-09-06T00:07:33.415Z,8.60
2018-09-06T00:10:02.232Z,8.87
2018-09-06T00:12:31.025Z,9.47
2018-09-06T00:14:59.812Z,9.53
2018-09-06T00:17:28.643Z,8.90
2018-09-06T00:19:57.455Z,9.70
2018-09-06T00:22:26.349Z,8.63
2018-09-06T00:24:55.227Z,9.57
2018-09-06T00:27:24.092Z,9.17
2018-09-06T00:29:52.908Z,9.67
2018-09-06T00:32:21.726Z,9.60
2018-09-06T00:34:50.573Z,9.43
2018-09-06T00:37:19.334Z,9.00
2018-09-06T00:39:48.196Z,9.73
2018-09-06T00:42:16.973Z,9.87
2018-09-06T00:44:45.896Z,9.77
2018-09-06T00:47:14.700Z,8.83
2018-09-06T00:49:43.824Z,10.40
2018-09-06T00:52:12.660Z,10.00
2018-09-06T00:54:41.515Z,10.00
2018-09-06T00:57:10.337Z,10.57
2018-09-06T00:59:39.151Z,8.70
2018-09-06T01:02:08.167Z,9.23
2018-09-06T01:04:37.013Z,8.90
2018-09-06T01:07:05.802Z,9.93
2018-09-06T01:09:34.663Z,10.13
2018-09-06T01:12:03.468Z,10.17
2018-09-06T01:14:32.231Z,9.67
2018-09-06T01:17:01.018Z,10.37
2018-09-06T01:19:29.792Z,9.83
2018-09-06T01:21:58.928Z,11.00
2018-09-06T01:24:27.696Z,9.97
2018-09-06T01:26:56.454Z,10.20
2018-09-06T01:29:25.210Z,11.13
2018-09-06T01:31:53.985Z,12.43
2018-09-06T01:34:22.825Z,10.03
2018-09-06T01:36:51.640Z,10.80
2018-09-06T01:39:20.444Z,10.80
2018-09-06T01:41:49.283Z,11.00
2018-09-06T01:44:18.087Z,11.87
2018-09-06T01:46:46.870Z,11.07
2018-09-06T01:49:15.657Z,11.07
2018-09-06T01:51:44.534Z,11.50
2018-09-06T01:54:13.360Z,12.40
2018-09-06T01:56:42.125Z,12.20
2018-09-06T01:59:14.050Z,12.50
2018-09-06T02:01:43.305Z,12.23
2018-09-06T02:04:12.320Z,11.87
2018-09-06T02:06:41.086Z,12.47
2018-09-06T02:09:10.348Z,14.17
2018-09-06T02:11:40.562Z,12.10
2018-09-06T02:14:09.620Z,12.77
2018-09-06T02:16:38.393Z,11.30
2018-09-06T02:19:07.539Z,12.93
2018-09-06T02:21:36.392Z,11.93
2018-09-06T02:24:05.612Z,13.73
2018-09-06T02:26:34.400Z,13.83
2018-09-06T02:29:03.194Z,12.87
2018-09-06T02:31:31.996Z,13.27
2018-09-06T02:34:00.886Z,13.63
2018-09-06T02:36:29.680Z,12.03
2018-09-06T02:38:58.559Z,12.43
2018-09-06T02:41:27.350Z,13.33
2018-09-06T02:43:56.125Z,12.73
2018-09-06T02:46:24.912Z,13.43
2018-09-06T02:48:53.691Z,12.57
2018-09-06T02:51:22.518Z,12.93
2018-09-06T02:53:51.309Z,12.83
2018-09-06T02:56:20.261Z,12.60
2018-09-06T02:58:49.044Z,13.17
2018-09-06T03:01:17.885Z,12.13
2018-09-06T03:03:46.658Z,12.53
2018-09-06T03:06:15.473Z,13.63
2018-09-06T03:08:44.658Z,13.17
2018-09-06T03:11:15.943Z,12.40
2018-09-06T03:13:44.888Z,13.07
2018-09-06T03:16:13.758Z,12.93
2018-09-06T03:18:42.670Z,13.57
2018-09-06T03:21:11.438Z,11.70
2018-09-06T03:23:40.349Z,13.33
2018-09-06T03:26:14.265Z,12.90
2018-09-06T03:28:43.194Z,11.83
2018-09-06T03:31:12.003Z,12.03
2018-09-06T03:33:40.795Z,12.17
2018-09-06T03:36:09.627Z,12.80
2018-09-06T03:38:38.758Z,12.30
2018-09-06T03:41:07.654Z,12.33
2018-09-06T03:43:36.459Z,11.97
2018-09-06T03:46:06.799Z,12.77
2018-09-06T03:48:35.609Z,14.23
2018-09-06T03:51:05.112Z,12.00
2018-09-06T03:53:34.017Z,12.40
2018-09-06T03:56:02.903Z,13.53
2018-09-06T03:58:31.767Z,12.47
2018-09-06T04:01:00.631Z,12.20
2018-09-06T04:03:29.486Z,11.10
2018-09-06T04:05:58.263Z,12.57
2018-09-06T04:08:27.051Z,12.17
2018-09-06T04:10:55.868Z,12.37
2018-09-06T04:13:24.711Z,12.60
2018-09-06T04:15:53.523Z,12.33
2018-09-06T04:18:22.365Z,12.67
2018-09-06T04:20:51.153Z,13.13
2018-09-06T04:23:20.028Z,12.97
2018-09-06T04:25:48.893Z,12.30
2018-09-06T04:28:17.794Z,11.67
2018-09-06T04:30:46.651Z,11.30
2018-09-06T04:33:15.455Z,11.67
2018-09-06T04:35:44.328Z,11.80
2018-09-06T04:38:13.227Z,11.00
2018-09-06T04:40:42.054Z,12.90
2018-09-06T04:43:10.966Z,10.67
2018-09-06T04:45:39.771Z,11.50
2018-09-06T04:48:08.531Z,10.73
2018-09-06T04:50:37.343Z,11.73
2018-09-06T04:53:06.137Z,11.73
2018-09-06T04:55:34.919Z,12.33
2018-09-06T04:58:03.774Z,10.90
2018-09-06T05:00:32.601Z,12.10
2018-09-06T05:03:01.423Z,10.87
2018-09-06T05:05:30.255Z,12.23
2018-09-06T05:07:59.018Z,11.53
2018-09-06T05:10:27.886Z,11.80
2018-09-06T05:12:56.699Z,12.53
2018-09-06T05:15:25.574Z,11.13
2018-09-06T05:17:54.388Z,12.53
2018-09-06T05:20:23.253Z,12.27
2018-09-06T05:22:52.068Z,12.00
2018-09-06T05:25:21.034Z,12.13
2018-09-06T05:27:49.876Z,11.23
2018-09-06T05:30:18.796Z,11.73
2018-09-06T05:32:47.591Z,12.50
2018-09-06T05:35:16.438Z,12.07
2018-09-06T05:37:45.387Z,12.13
2018-09-06T05:40:14.558Z,11.10
2018-09-06T05:42:46.380Z,10.93
2018-09-06T05:45:15.167Z,11.93
2018-09-06T05:47:43.973Z,12.03
2018-09-06T05:50:12.775Z,10.93
2018-09-06T05:52:41.589Z,12.27
2018-09-06T05:55:10.370Z,11.33
2018-09-06T05:57:39.176Z,10.33
2018-09-06T06:00:13.279Z,11.43
2018-09-06T06:02:42.172Z,11.07
2018-09-06T06:05:11.378Z,11.10
2018-09-06T06:07:51.375Z,11.50
2018-09-06T06:10:20.220Z,10.63
2018-09-06T06:12:49.156Z,10.47
2018-09-06T06:15:18.008Z,11.87
2018-09-06T06:17:46.868Z,9.63
2018-09-06T06:20:15.697Z,12.33
2018-09-06T06:22:44.507Z,11.07
2018-09-06T06:25:13.319Z,11.63
2018-09-06T06:27:42.129Z,10.00
2018-09-06T06:30:10.969Z,11.03
2018-09-06T06:32:39.917Z,10.63
2018-09-06T06:35:08.777Z,10.93
2018-09-06T06:37:37.559Z,12.50
2018-09-06T06:40:06.396Z,12.63
2018-09-06T06:42:35.548Z,12.83
2018-09-06T06:45:04.379Z,10.93
2018-09-06T06:47:33.304Z,12.03
2018-09-06T06:50:02.111Z,12.93
2018-09-06T06:52:30.955Z,11.37
2018-09-06T06:54:59.713Z,10.30
2018-09-06T06:57:28.490Z,12.20
2018-09-06T06:59:57.246Z,9.60
2018-09-06T07:02:26.111Z,11.73
2018-09-06T07:04:55.387Z,12.60
2018-09-06T07:07:24.201Z,11.07
2018-09-06T07:09:53.074Z,11.57
2018-09-06T07:12:21.918Z,10.97
2018-09-06T07:14:50.792Z,10.97
2018-09-06T07:17:19.592Z,10.53
2018-09-06T07:19:48.460Z,10.87
2018-09-06T07:22:17.272Z,14.07
2018-09-06T07:24:46.064Z,10.37
2018-09-06T07:27:14.913Z,11.00
2018-09-06T07:29:43.742Z,10.03
2018-09-06T07:32:12.574Z,10.97
2018-09-06T07:34:41.448Z,11.93
2018-09-06T07:37:10.254Z,9.73
2018-09-06T07:39:39.101Z,9.80
2018-09-06T07:42:07.902Z,10.40
2018-09-06T07:44:36.738Z,10.63
2018-09-06T07:47:05.620Z,9.50
2018-09-06T07:49:34.521Z,9.37
2018-09-06T07:52:03.717Z,10.10
2018-09-06T07:54:32.498Z,9.63
2018-09-06T07:57:01.377Z,10.93
2018-09-06T07:59:30.135Z,9.10
2018-09-06T08:01:58.920Z,10.50
2018-09-06T08:04:27.751Z,9.30
2018-09-06T08:06:56.554Z,8.93
2018-09-06T08:09:25.629Z,10.20
2018-09-06T08:11:54.825Z,8.97
2018-09-06T08:14:23.783Z,8.87
2018-09-06T08:16:52.625Z,8.87
2018-09-06T08:19:21.504Z,8.47
2018-09-06T08:21:50.291Z,8.50
2018-09-06T08:24:22.884Z,8.63
2018-09-06T08:26:51.940Z,8.87
2018-09-06T08:29:20.764Z,7.43
2018-09-06T08:31:49.708Z,8.00
2018-09-06T08:34:18.497Z,7.80
2018-09-06T08:36:47.349Z,7.37
2018-09-06T08:39:16.166Z,7.37
2018-09-06T08:41:44.950Z,7.57
2018-09-06T08:44:13.783Z,7.90
2018-09-06T08:46:42.682Z,7.30
2018-09-06T08:49:11.469Z,8.50
2018-09-06T08:51:40.195Z,7.33
2018-09-06T08:54:10.438Z,8.17
2018-09-06T08:56:39.271Z,7.73
2018-09-06T08:59:08.129Z,7.27
2018-09-06T09:01:40.593Z,8.23
2018-09-06T09:04:09.832Z,8.63
2018-09-06T09:06:39.215Z,7.70
2018-09-06T09:09:14.807Z,7.80
2018-09-06T09:11:43.936Z,7.77
2018-09-06T09:14:12.768Z,6.63
2018-09-06T09:16:41.885Z,7.20
2018-09-06T09:19:10.669Z,6.87
2018-09-06T09:21:39.535Z,7.23
2018-09-06T09:24:08.936Z,6.20
2018-09-06T09:26:37.830Z,6.70
2018-09-06T09:29:06.636Z,6.90
2018-09-06T09:31:35.558Z,6.80
2018-09-06T09:34:04.595Z,7.20
2018-09-06T09:36:33.426Z,6.60
2018-09-06T09:39:02.259Z,6.93
2018-09-06T09:41:31.014Z,5.73
2018-09-06T09:43:59.928Z,5.77
2018-09-06T09:51:24.517Z,6.43
2018-09-06T09:53:53.365Z,7.43
2018-09-06T09:56:22.345Z,7.60
2018-09-06T09:58:51.119Z,6.23
2018-09-06T10:01:20.181Z,7.23
2018-09-06T10:03:54.202Z,7.93
2018-09-06T10:06:28.504Z,6.97
2018-09-06T10:09:02.786Z,6.43
2018-09-06T10:11:31.981Z,6.73
2018-09-06T10:14:01.126Z,7.30
2018-09-06T10:16:30.600Z,6.43
2018-09-06T10:18:59.742Z,6.30
2018-09-06T10:21:28.559Z,6.40
2018-09-06T10:23:57.476Z,6.60
2018-09-06T10:26:26.252Z,6.20
2018-09-06T10:28:55.453Z,6.83
2018-09-06T10:31:24.317Z,7.67
2018-09-06T10:33:53.151Z,6.60
2018-09-06T10:36:22.437Z,7.43
2018-09-06T10:38:51.327Z,6.73
2018-09-06T10:41:20.119Z,5.90
2018-09-06T10:43:48.922Z,5.90
2018-09-06T10:46:18.007Z,6.83
2018-09-06T10:48:46.831Z,7.67
2018-09-06T10:51:15.747Z,7.43
2018-09-06T10:53:44.643Z,6.53
2018-09-06T10:56:13.718Z,7.20
2018-09-06T10:58:42.965Z,6.60
2018-09-06T11:01:16.958Z,7.87
2018-09-06T11:03:45.772Z,7.10
2018-09-06T11:06:14.716Z,7.13
2018-09-06T11:08:43.558Z,7.60
2018-09-06T11:11:12.384Z,6.77
2018-09-06T11:13:41.300Z,6.87
2018-09-06T11:16:10.909Z,6.83
2018-09-06T11:18:39.957Z,7.27
2018-09-06T11:21:08.765Z,7.17
2018-09-06T11:23:38.079Z,7.10
2018-09-06T11:26:07.247Z,7.50
2018-09-06T11:28:36.119Z,6.60
2018-09-06T11:31:05.239Z,6.17
2018-09-06T11:33:34.070Z,6.23
2018-09-06T11:36:02.891Z,7.10
2018-09-06T11:38:31.686Z,7.37
2018-09-06T11:41:00.453Z,7.07
2018-09-06T11:43:29.278Z,6.53
2018-09-06T11:45:58.084Z,6.17
2018-09-06T11:48:26.924Z,6.27
2018-09-06T11:50:55.782Z,7.13
2018-09-06T11:53:24.598Z,6.70
2018-09-06T11:55:53.409Z,6.47
2018-09-06T11:58:22.203Z,8.00
2018-09-06T12:00:51.457Z,6.33
2018-09-06T12:03:20.236Z,6.93
2018-09-06T12:05:49.025Z,6.97
2018-09-06T12:08:17.847Z,6.13
2018-09-06T12:10:46.675Z,7.20
2018-09-06T12:13:15.581Z,7.03
2018-09-06T12:15:44.577Z,7.23
2018-09-06T12:18:13.416Z,7.20
2018-09-06T12:20:42.609Z,7.10
2018-09-06T12:23:11.446Z,6.97
2018-09-06T12:25:40.263Z,7.13
2018-09-06T12:28:09.331Z,6.90
2018-09-06T12:30:38.311Z,8.23
2018-09-06T12:33:07.151Z,15.03
2018-09-06T12:35:36.349Z,9.63
2018-09-06T12:38:05.551Z,6.63
2018-09-06T12:40:34.360Z,37.80
2018-09-06T12:43:03.717Z,24.90
2018-09-06T12:45:32.867Z,8.03
2018-09-06T12:48:01.792Z,6.57
2018-09-06T12:50:30.587Z,6.47
2018-09-06T12:52:59.406Z,6.87
2018-09-06T12:55:28.181Z,6.90
2018-09-06T12:57:57.118Z,7.20
2018-09-06T13:00:26.206Z,7.47
2018-09-06T13:02:54.982Z,8.03
2018-09-06T13:05:24.081Z,8.30
2018-09-06T13:07:52.893Z,7.40
2018-09-06T13:10:21.679Z,9.07
2018-09-06T13:12:50.554Z,8.47
2018-09-06T13:15:19.305Z,8.13
2018-09-06T13:17:48.130Z,7.37
2018-09-06T13:20:16.889Z,7.37
2018-09-06T13:22:45.653Z,7.80
2018-09-06T13:25:14.523Z,7.77
2018-09-06T13:27:43.313Z,7.23
2018-09-06T13:30:12.182Z,6.87
2018-09-06T13:32:40.951Z,6.63
2018-09-06T13:35:09.770Z,5.70
2018-09-06T13:37:38.534Z,6.87
2018-09-06T13:40:07.479Z,5.53
2018-09-06T13:42:36.298Z,6.17
2018-09-06T13:45:05.642Z,5.90
2018-09-06T13:47:34.418Z,4.97
2018-09-06T13:50:03.270Z,4.67
2018-09-06T13:52:32.076Z,5.10
2018-09-06T13:55:00.874Z,4.83
2018-09-06T13:57:29.694Z,5.60
2018-09-06T13:59:58.622Z,5.90
2018-09-06T14:02:27.555Z,6.03
2018-09-06T14:04:56.416Z,5.87
2018-09-06T14:07:25.258Z,6.40
2018-09-06T14:09:54.202Z,5.33
2018-09-06T14:12:22.978Z,5.57
2018-09-06T14:14:51.769Z,5.37
2018-09-06T14:17:20.550Z,7.90
2018-09-06T14:19:49.339Z,5.23
2018-09-06T14:22:18.443Z,6.77
2018-09-06T14:24:47.304Z,6.50
2018-09-06T14:27:16.048Z,5.50
2018-09-06T14:29:44.827Z,6.63
2018-09-06T14:32:13.629Z,5.80
2018-09-06T14:34:42.650Z,5.93
2018-09-06T14:37:11.429Z,6.30
2018-09-06T14:39:40.321Z,6.33
2018-09-06T14:42:09.157Z,6.60
2018-09-06T14:44:38.010Z,6.97
2018-09-06T14:47:06.844Z,6.77
2018-09-06T14:49:35.699Z,9.50
2018-09-06T14:52:04.537Z,8.90
2018-09-06T14:54:33.486Z,6.00
2018-09-06T14:57:02.211Z,6.47
2018-09-06T14:59:31.343Z,7.73
2018-09-06T15:02:00.173Z,6.13
2018-09-06T15:04:29.000Z,7.30
2018-09-06T15:06:57.771Z,7.30
2018-09-06T15:09:26.602Z,6.97
2018-09-06T15:11:55.403Z,6.33
2018-09-06T15:14:24.263Z,6.70
2018-09-06T15:16:53.049Z,7.53
2018-09-06T15:19:21.914Z,7.47
2018-09-06T15:21:50.895Z,7.00
2018-09-06T15:24:19.634Z,7.80
2018-09-06T15:26:48.394Z,7.57
2018-09-06T15:29:17.150Z,8.00
2018-09-06T15:31:45.953Z,8.30
2018-09-06T15:34:14.741Z,7.47
2018-09-06T15:36:43.940Z,7.80
2018-09-06T15:39:12.730Z,7.80
2018-09-06T15:41:41.657Z,7.90
2018-09-06T15:44:10.480Z,7.93
2018-09-06T15:46:39.313Z,9.30
2018-09-06T15:49:08.366Z,7.33
2018-09-06T15:51:37.197Z,7.47
2018-09-06T15:54:06.086Z,9.70
2018-09-06T15:56:34.981Z,8.73
2018-09-06T15:59:03.833Z,9.93
2018-09-06T16:01:32.689Z,10.43
2018-09-06T16:04:01.527Z,8.93
2018-09-06T16:06:30.325Z,9.20
2018-09-06T16:08:59.092Z,9.07
2018-09-06T16:11:27.910Z,9.60
2018-09-06T16:13:56.803Z,9.90
2018-09-06T16:16:25.567Z,10.10
2018-09-06T16:18:54.385Z,10.60
2018-09-06T16:21:23.187Z,9.70
2018-09-06T16:23:51.983Z,9.37
2018-09-06T16:26:20.791Z,11.50
2018-09-06T16:28:49.637Z,11.10
2018-09-06T16:31:18.476Z,11.87
2018-09-06T16:33:47.559Z,11.37
2018-09-06T16:36:16.386Z,10.27
2018-09-06T16:38:45.290Z,10.53
2018-09-06T16:41:14.083Z,11.60
2018-09-06T16:43:42.885Z,10.93
2018-09-06T16:46:11.775Z,12.67
2018-09-06T16:48:40.695Z,10.77
2018-09-06T16:51:09.493Z,11.17
2018-09-06T16:53:38.354Z,12.30
2018-09-06T16:56:07.292Z,11.17
2018-09-06T16:58:36.128Z,11.60
2018-09-06T17:01:05.048Z,10.50
2018-09-06T17:03:33.986Z,10.60
2018-09-06T17:06:02.827Z,10.93
2018-09-06T17:08:31.585Z,11.73
2018-09-06T17:11:00.388Z,10.77
2018-09-06T17:13:29.193Z,10.97
2018-09-06T17:15:58.086Z,11.50
2018-09-06T17:18:26.950Z,11.60
2018-09-06T17:20:56.109Z,11.73
2018-09-06T17:23:24.913Z,12.73
2018-09-06T17:25:53.710Z,11.70
2018-09-06T17:28:22.541Z,12.63
2018-09-06T17:30:51.354Z,12.17
2018-09-06T17:33:20.215Z,12.73
2018-09-06T17:35:49.063Z,10.90
2018-09-06T17:38:17.925Z,12.77
2018-09-06T17:40:46.715Z,12.80
2018-09-06T17:43:15.474Z,11.33
2018-09-06T17:45:44.321Z,11.67
2018-09-06T17:48:13.168Z,11.30
2018-09-06T17:50:42.038Z,11.30
2018-09-06T17:53:10.939Z,11.30
2018-09-06T17:55:39.743Z,12.33
2018-09-06T17:58:08.557Z,12.60
2018-09-06T18:00:44.911Z,15.47
2018-09-06T18:03:14.324Z,12.63
2018-09-06T18:05:43.068Z,12.73
2018-09-06T18:08:12.442Z,12.37
2018-09-06T18:10:41.344Z,11.53
2018-09-06T18:13:10.283Z,11.50
2018-09-06T18:15:39.138Z,11.77
2018-09-06T18:18:08.070Z,11.60
2018-09-06T18:20:36.954Z,11.43
2018-09-06T18:23:05.910Z,12.13
2018-09-06T18:25:34.777Z,12.43
2018-09-06T18:28:03.654Z,12.07
2018-09-06T18:30:32.535Z,12.60
2018-09-06T18:33:01.837Z,13.60
2018-09-06T18:35:30.639Z,11.93
2018-09-06T18:37:59.480Z,12.37
2018-09-06T18:40:28.613Z,12.73
2018-09-06T18:42:57.537Z,12.50
2018-09-06T18:45:26.377Z,10.97
2018-09-06T18:47:56.040Z,12.83
2018-09-06T18:50:24.882Z,11.63
2018-09-06T18:52:53.747Z,12.43
2018-09-06T18:55:22.586Z,14.23
2018-09-06T18:57:51.475Z,11.80
2018-09-06T19:00:20.299Z,12.13
2018-09-06T19:02:49.065Z,13.57
2018-09-06T19:05:17.847Z,11.20
2018-09-06T19:07:46.694Z,12.30
2018-09-06T19:10:15.618Z,11.63
2018-09-06T19:12:44.371Z,12.53
2018-09-06T19:15:13.188Z,12.17
2018-09-06T19:17:42.033Z,12.77
2018-09-06T19:20:10.920Z,12.97
2018-09-06T19:22:39.697Z,12.03
2018-09-06T19:25:08.586Z,11.60
2018-09-06T19:27:37.389Z,14.07
2018-09-06T19:30:06.914Z,13.00
2018-09-06T19:32:35.749Z,14.67
2018-09-06T19:35:05.006Z,11.33
2018-09-06T19:37:33.876Z,12.00
2018-09-06T19:40:02.745Z,12.07
2018-09-06T19:42:31.555Z,13.43
2018-09-06T19:45:00.422Z,12.10
2018-09-06T19:47:29.342Z,11.50
2018-09-06T19:49:58.127Z,12.27
2018-09-06T19:52:26.920Z,10.97
2018-09-06T19:54:55.709Z,11.47
2018-09-06T19:57:24.558Z,11.27
2018-09-06T19:59:53.460Z,10.33
2018-09-06T20:02:22.260Z,11.00
2018-09-06T20:04:51.041Z,11.40
2018-09-06T20:07:19.794Z,11.73
2018-09-06T20:09:48.574Z,11.37
2018-09-06T20:12:17.444Z,11.13
2018-09-06T20:14:46.384Z,11.97
2018-09-06T20:17:15.177Z,10.87
2018-09-06T20:19:44.004Z,12.03
2018-09-06T20:22:12.778Z,11.43
2018-09-06T20:24:41.557Z,10.77
2018-09-06T20:27:10.385Z,11.43
2018-09-06T20:29:39.557Z,12.77
2018-09-06T20:32:08.366Z,12.10
2018-09-06T20:34:37.172Z,11.50
2018-09-06T20:37:06.019Z,12.43
2018-09-06T20:39:35.146Z,11.63
2018-09-06T20:42:03.966Z,12.00
2018-09-06T20:44:33.021Z,11.03
2018-09-06T20:47:01.858Z,11.30
2018-09-06T20:49:30.700Z,11.00
2018-09-06T20:51:59.525Z,10.00
2018-09-06T20:54:28.371Z,12.77
2018-09-06T20:56:57.142Z,11.73
2018-09-06T20:59:25.906Z,11.07
2018-09-06T21:01:54.956Z,10.87
2018-09-06T21:04:23.835Z,11.00
2018-09-06T21:06:52.612Z,10.67
2018-09-06T21:09:21.503Z,11.60
2018-09-06T21:11:50.261Z,11.27
2018-09-06T21:14:19.113Z,11.27
2018-09-06T21:16:48.404Z,10.50
2018-09-06T21:19:17.213Z,12.37
2018-09-06T21:21:46.010Z,11.20
2018-09-06T21:24:14.867Z,11.80
2018-09-06T21:26:43.687Z,11.57
2018-09-06T21:29:12.484Z,11.17
2018-09-06T21:31:41.746Z,12.23
2018-09-06T21:34:10.511Z,11.47
2018-09-06T21:36:39.301Z,12.03
2018-09-06T21:39:10.474Z,12.40
2018-09-06T21:41:39.359Z,10.90
2018-09-06T21:44:09.077Z,11.60
2018-09-06T21:46:37.913Z,11.90
2018-09-06T21:49:07.181Z,12.20
2018-09-06T21:51:35.995Z,11.37
2018-09-06T21:54:04.848Z,11.70
2018-09-06T21:56:33.743Z,11.87
2018-09-06T21:59:02.568Z,10.60
2018-09-06T22:01:31.426Z,12.20
2018-09-06T22:04:05.429Z,10.90
2018-09-06T22:06:34.527Z,11.60
2018-09-06T22:09:05.044Z,11.60
2018-09-06T22:11:33.873Z,10.63
2018-09-06T22:14:02.648Z,11.60
2018-09-06T22:16:31.607Z,11.80
2018-09-06T22:19:00.375Z,11.00
2018-09-06T22:21:29.146Z,11.37
2018-09-06T22:23:58.255Z,11.93
2018-09-06T22:26:27.156Z,12.30
2018-09-06T22:28:56.024Z,12.33
2018-09-06T22:31:24.903Z,10.97
2018-09-06T22:33:53.730Z,10.97
2018-09-06T22:36:22.512Z,11.40
2018-09-06T22:38:51.349Z,11.20
2018-09-06T22:41:20.189Z,10.10
2018-09-06T22:43:48.987Z,10.70
2018-09-06T22:46:17.800Z,11.07
2018-09-06T22:48:46.557Z,11.20
2018-09-06T22:51:15.506Z,12.07
2018-09-06T22:53:44.322Z,11.03
2018-09-06T22:56:13.123Z,10.67
2018-09-06T22:58:41.956Z,11.27
2018-09-06T23:01:10.948Z,11.43
2018-09-06T23:03:41.457Z,10.70
2018-09-06T23:06:10.614Z,10.97
2018-09-06T23:08:41.277Z,11.67
2018-09-06T23:11:10.090Z,10.83
2018-09-06T23:13:38.878Z,12.00
2018-09-06T23:16:07.714Z,11.67
2018-09-06T23:21:10.278Z,13.53
2018-09-06T23:23:39.881Z,13.47
2018-09-06T23:26:08.830Z,14.53
2018-09-06T23:28:37.647Z,14.37
2018-09-06T23:31:07.486Z,15.10
2018-09-06T23:33:36.396Z,13.97
2018-09-06T23:36:05.265Z,13.90
2018-09-06T23:38:34.467Z,14.47
2018-09-06T23:41:04.137Z,14.30
2018-09-06T23:43:32.926Z,13.50
2018-09-06T23:46:01.786Z,13.37
2018-09-06T23:48:31.855Z,15.03
2018-09-06T23:51:01.543Z,14.20
2018-09-06T23:53:30.335Z,13.90
2018-09-06T23:55:59.190Z,14.63
2018-09-06T23:58:27.986Z,15.57
